Capitol Logistics 406


KBNA
Nashville International Airport
Nashville, Tennessee, US
KRFD
Chicago/Rockford International Airport
Rockford, Illinois, US

Activity Log

Date Flight Route Aircraft Duration
11/14/2019 CPX406 N0406F350 HGGRD3 TINGS J29 PXV/N0420F340 PNT/N0330A160 V9 SMARS V128 RFD B738 1h 32m
09/25/2019 CPX406 N0451F410 HGGRD3 TINGS J29 PXV/N0453F400 PNT V9 SMARS V128 RFD B752 1h 15m
06/23/2019 CPX406 HGGRD PXV J73 GUIDO JOT B752 1h 07m
06/06/2019 CPX406 HGGRD PXV J73 GUIDO JOT B752 1h 32m
02/19/2019 CPX406 HGGRD PXV J73 GUIDO JOT B752 1h 16m

Route Details

Aircraft Information
Primary: Boeing 757-200SF
Backup: Boeing 737-800BCF
Route Data
Distance: 381nm
Sched. Duration: 1h 00m
Avg. Duration: 1h 20m (+21m)
Times Flown: 5
Recm'd Route: HGGRD PXV J73 GUIDO JOT
Planned Altitude: 36,000ft
Origin Wx: KBNA 032153Z 03008KT 10SM FEW070 SCT250 33/16 A2993 RMK AO2 SLP126 T03330156 $
Dest. Wx: KRFD 032154Z 03007KT 10SM SCT060 SCT250 31/17 A3003 RMK AO2 SLP165 CB DSNT NE MOV SW T03110172
Notes:

Financial History
Total Freight: 223,264lbs
Average Load: 44,653lbs/flt
Fuel Used: 47,964lbs
Avg. Fuel Used: 9,593lbs/flt
Fuel Expense: $41,249
Avg. Fuel Expense: $8,250
Avg. Fuel Cost: $0.86/lbs
Total Gross Income: $281,482
Pilot Pay: $905
Total Expenses: $30,660
Total Revenue: $208,007
Average Revenue: $56,296.48